createdAt,value
2023-04-29T00:03:56.578Z,16.20
2023-04-29T00:08:58.864Z,16.10
2023-04-29T00:14:01.431Z,16.00
2023-04-29T00:19:03.494Z,16.00
2023-04-29T00:24:05.973Z,15.90
2023-04-29T00:29:07.989Z,15.90
2023-04-29T00:34:10.047Z,15.90
2023-04-29T00:39:15.135Z,15.90
2023-04-29T00:44:17.703Z,15.80
2023-04-29T00:49:20.312Z,15.80
2023-04-29T00:54:22.339Z,15.80
2023-04-29T00:59:31.857Z,15.70
2023-04-29T01:04:34.018Z,15.60
2023-04-29T01:09:48.861Z,15.60
2023-04-29T01:14:54.691Z,15.60
2023-04-29T01:19:58.933Z,15.50
2023-04-29T01:25:01.144Z,15.50
2023-04-29T01:30:17.326Z,15.50
2023-04-29T01:35:34.630Z,15.40
2023-04-29T01:40:43.076Z,15.50
2023-04-29T01:45:46.313Z,15.40
2023-04-29T01:50:48.545Z,15.40
2023-04-29T01:55:50.954Z,15.30
2023-04-29T02:00:53.452Z,15.30
2023-04-29T02:05:56.010Z,15.20
2023-04-29T02:10:59.802Z,15.10
2023-04-29T02:16:10.011Z,15.10
2023-04-29T02:21:12.468Z,14.90
2023-04-29T02:26:15.483Z,14.80
2023-04-29T02:31:17.616Z,14.70
2023-04-29T02:36:22.545Z,14.70
2023-04-29T02:41:26.390Z,14.70
2023-04-29T02:46:28.636Z,14.60
2023-04-29T02:51:30.879Z,14.40
2023-04-29T02:56:32.905Z,14.30
2023-04-29T03:01:34.999Z,14.30
2023-04-29T03:06:37.140Z,14.20
2023-04-29T03:11:39.451Z,14.10
2023-04-29T03:16:41.557Z,14.10
2023-04-29T03:21:44.435Z,14.10
2023-04-29T03:26:46.502Z,14.00
2023-04-29T03:31:48.657Z,14.00
2023-04-29T03:36:51.394Z,14.00
2023-04-29T03:41:53.742Z,13.90
2023-04-29T03:46:57.834Z,13.90
2023-04-29T03:52:00.029Z,13.70
2023-04-29T03:57:03.598Z,13.90
2023-04-29T04:02:05.789Z,13.80
2023-04-29T04:07:09.426Z,13.80
2023-04-29T04:12:14.616Z,13.80
2023-04-29T04:22:19.631Z,13.90
2023-04-29T04:27:25.786Z,14.00
2023-04-29T04:32:28.741Z,14.10
2023-04-29T04:37:31.859Z,14.10
2023-04-29T04:42:34.634Z,14.20
2023-04-29T04:47:37.549Z,14.20
2023-04-29T04:52:40.418Z,14.30
2023-04-29T04:57:47.841Z,14.40
2023-04-29T05:02:50.269Z,14.50
2023-04-29T05:07:52.498Z,14.70
2023-04-29T05:12:57.057Z,14.80
2023-04-29T05:17:59.189Z,14.90
2023-04-29T05:23:01.784Z,15.10
2023-04-29T05:28:04.856Z,15.20
2023-04-29T05:33:07.760Z,15.20
2023-04-29T05:38:10.829Z,15.30
2023-04-29T05:43:14.772Z,15.40
2023-04-29T05:48:16.852Z,15.50
2023-04-29T05:53:18.908Z,15.60
2023-04-29T05:58:21.006Z,15.70
2023-04-29T06:03:23.532Z,15.80
2023-04-29T06:08:28.018Z,15.90
2023-04-29T06:13:34.256Z,16.00
2023-04-29T06:18:36.348Z,16.30
2023-04-29T06:23:38.401Z,16.40
2023-04-29T06:28:41.265Z,16.70
2023-04-29T06:33:43.804Z,16.80
2023-04-29T06:38:45.976Z,16.80
2023-04-29T06:43:49.041Z,16.90
2023-04-29T06:48:51.274Z,16.90
2023-04-29T06:58:55.955Z,17.00
2023-04-29T07:03:58.349Z,17.20
2023-04-29T07:09:00.622Z,17.30
2023-04-29T07:14:02.624Z,17.40
2023-04-29T07:19:05.611Z,17.50
2023-04-29T07:24:08.936Z,17.50
2023-04-29T07:29:11.312Z,17.50
2023-04-29T07:34:13.612Z,17.40
2023-04-29T07:39:16.334Z,17.30
2023-04-29T07:44:21.759Z,17.20
2023-04-29T07:49:23.823Z,17.20
2023-04-29T07:54:28.029Z,17.10
2023-04-29T07:59:30.898Z,17.00
2023-04-29T08:04:33.331Z,17.00
2023-04-29T08:09:36.668Z,16.90
2023-04-29T08:14:39.313Z,16.90
2023-04-29T08:19:41.632Z,16.90
2023-04-29T08:24:45.130Z,16.80
2023-04-29T08:29:47.572Z,16.80
2023-04-29T08:34:49.580Z,16.80
2023-04-29T08:39:51.772Z,16.80
2023-04-29T08:44:54.173Z,16.80
2023-04-29T08:49:57.319Z,16.80
2023-04-29T08:54:59.936Z,16.70
2023-04-29T09:00:02.148Z,16.80
2023-04-29T09:05:11.291Z,16.90
2023-04-29T09:10:14.830Z,17.10
2023-04-29T09:15:16.851Z,17.10
2023-04-29T09:20:22.070Z,17.20
2023-04-29T09:25:24.515Z,17.20
2023-04-29T09:30:26.732Z,17.30
2023-04-29T09:35:28.921Z,17.40
2023-04-29T09:40:31.866Z,17.50
2023-04-29T09:45:38.602Z,17.70
2023-04-29T09:50:42.326Z,18.10
2023-04-29T09:55:53.207Z,18.40
2023-04-29T10:00:56.318Z,18.60
2023-04-29T10:05:58.550Z,18.80
2023-04-29T10:11:02.108Z,19.00
2023-04-29T10:16:13.008Z,19.20
2023-04-29T10:21:16.096Z,19.40
2023-04-29T10:26:18.804Z,19.80
2023-04-29T10:31:21.770Z,19.90
2023-04-29T10:36:25.849Z,19.80
2023-04-29T10:41:34.602Z,19.70
2023-04-29T10:46:37.891Z,19.60
2023-04-29T10:51:43.936Z,19.40
2023-04-29T10:56:53.169Z,19.40
2023-04-29T11:01:55.278Z,19.40
2023-04-29T11:07:02.489Z,19.40
2023-04-29T11:12:06.569Z,19.50
2023-04-29T11:17:16.080Z,19.60
2023-04-29T11:22:18.276Z,19.60
2023-04-29T11:27:22.794Z,19.60
2023-04-29T11:32:26.005Z,19.60
2023-04-29T11:37:28.257Z,19.50
2023-04-29T11:42:30.495Z,19.60
2023-04-29T11:47:32.642Z,19.60
2023-04-29T11:52:38.769Z,19.60
2023-04-29T11:57:41.030Z,19.60
2023-04-29T12:02:47.038Z,19.60
2023-04-29T12:07:51.066Z,19.50
2023-04-29T12:12:53.561Z,19.60
2023-04-29T12:17:55.811Z,19.60
2023-04-29T12:23:11.129Z,19.60
2023-04-29T12:28:13.906Z,19.70
2023-04-29T12:33:22.263Z,19.70
2023-04-29T12:38:28.971Z,19.80
2023-04-29T12:43:32.212Z,19.80
2023-04-29T12:48:35.671Z,19.90
2023-04-29T12:53:38.660Z,19.90
2023-04-29T12:58:40.691Z,19.80
2023-04-29T13:03:42.880Z,19.90
2023-04-29T13:08:45.230Z,20.00
2023-04-29T13:13:47.272Z,20.20
2023-04-29T13:19:04.445Z,20.20
2023-04-29T13:24:11.906Z,20.10
2023-04-29T13:29:13.993Z,20.20
2023-04-29T13:34:16.029Z,20.20
2023-04-29T13:39:20.297Z,20.10
2023-04-29T13:44:32.844Z,20.20
2023-04-29T13:50:01.852Z,20.30
2023-04-29T13:55:39.420Z,20.40
2023-04-29T14:05:27.946Z,20.60
2023-04-29T14:10:31.056Z,20.60
2023-04-29T14:15:33.098Z,20.60
2023-04-29T14:20:35.253Z,20.70
2023-04-29T14:25:37.296Z,20.90
2023-04-29T14:30:39.459Z,21.70
2023-04-29T14:35:41.455Z,22.70
2023-04-29T14:40:43.488Z,23.90
2023-04-29T14:45:45.522Z,24.00
2023-04-29T14:50:47.581Z,24.20
2023-04-29T14:55:49.958Z,23.80
2023-04-29T15:00:51.983Z,23.50
2023-04-29T15:05:55.007Z,23.00
2023-04-29T15:10:57.181Z,22.60
2023-04-29T15:15:59.287Z,22.30
2023-04-29T15:21:01.454Z,22.10
2023-04-29T15:26:03.771Z,21.80
2023-04-29T15:31:05.932Z,21.80
2023-04-29T15:36:08.123Z,21.50
2023-04-29T15:41:10.113Z,21.10
2023-04-29T15:46:12.192Z,21.00
2023-04-29T15:51:15.100Z,21.00
2023-04-29T15:56:17.467Z,20.90
2023-04-29T16:01:19.539Z,20.80
2023-04-29T16:06:21.603Z,20.70
2023-04-29T16:11:23.663Z,20.70
2023-04-29T16:16:25.737Z,20.50
2023-04-29T16:21:27.924Z,20.50
2023-04-29T16:26:30.269Z,20.40
2023-04-29T16:31:32.452Z,20.20
2023-04-29T16:36:34.525Z,20.20
2023-04-29T16:41:37.349Z,20.20
2023-04-29T16:46:39.502Z,20.30
2023-04-29T16:51:41.673Z,20.40
2023-04-29T16:56:44.228Z,20.30
2023-04-29T17:01:46.368Z,20.20
2023-04-29T17:06:48.562Z,20.10
2023-04-29T17:11:50.703Z,20.00
2023-04-29T17:16:52.699Z,20.00
2023-04-29T17:21:54.682Z,19.80
2023-04-29T17:26:56.637Z,19.60
2023-04-29T17:32:03.405Z,19.50
2023-04-29T17:37:06.099Z,19.30
2023-04-29T17:42:08.112Z,19.10
2023-04-29T17:47:10.960Z,18.90
2023-04-29T17:52:14.029Z,18.80
2023-04-29T17:57:16.154Z,18.60
2023-04-29T18:02:18.138Z,18.50
2023-04-29T18:07:20.296Z,18.40
2023-04-29T18:12:22.498Z,18.40
2023-04-29T18:17:24.541Z,18.20
2023-04-29T18:22:26.552Z,18.20
2023-04-29T18:27:28.588Z,18.10
2023-04-29T18:32:30.841Z,17.90
2023-04-29T18:37:32.918Z,17.90
2023-04-29T18:42:34.939Z,17.80
2023-04-29T18:47:37.244Z,17.70
2023-04-29T18:52:39.334Z,17.70
2023-04-29T18:57:41.501Z,17.60
2023-04-29T19:02:43.519Z,17.60
2023-04-29T19:07:45.576Z,17.50
2023-04-29T19:12:47.620Z,17.50
2023-04-29T19:17:49.656Z,17.50
2023-04-29T19:22:51.762Z,17.50
2023-04-29T19:27:53.852Z,17.40
2023-04-29T19:32:55.920Z,17.50
2023-04-29T19:37:57.942Z,17.30
2023-04-29T19:42:59.956Z,17.30
2023-04-29T19:48:02.345Z,17.20
2023-04-29T19:53:04.386Z,17.20
2023-04-29T19:58:06.841Z,17.10
2023-04-29T20:03:09.024Z,17.10
2023-04-29T20:08:11.132Z,17.00
2023-04-29T20:13:13.248Z,16.90
2023-04-29T20:18:15.269Z,16.90
2023-04-29T20:23:17.343Z,16.90
2023-04-29T20:28:19.385Z,16.80
2023-04-29T20:33:21.514Z,16.80
2023-04-29T20:38:24.759Z,16.80
2023-04-29T20:43:26.905Z,16.80
2023-04-29T20:48:29.017Z,16.70
2023-04-29T20:53:31.287Z,16.70
2023-04-29T20:58:33.406Z,16.70
2023-04-29T21:03:35.489Z,16.60
2023-04-29T21:08:37.510Z,16.50
2023-04-29T21:13:39.491Z,16.50
2023-04-29T21:18:41.494Z,16.40
2023-04-29T21:23:43.687Z,16.30
2023-04-29T21:28:45.936Z,16.30
2023-04-29T21:33:47.962Z,16.30
2023-04-29T21:38:50.547Z,16.30
2023-04-29T21:43:53.050Z,16.20
2023-04-29T21:48:56.238Z,16.20
2023-04-29T21:53:58.330Z,16.20
2023-04-29T21:59:00.433Z,16.20
2023-04-29T22:04:03.104Z,16.10
2023-04-29T22:09:06.591Z,16.10
2023-04-29T22:14:08.613Z,16.10
2023-04-29T22:19:10.702Z,16.10
2023-04-29T22:24:12.699Z,16.10
2023-04-29T22:29:14.731Z,16.10
2023-04-29T22:34:16.763Z,16.10
2023-04-29T22:39:18.886Z,16.10
2023-04-29T22:44:21.054Z,16.00
2023-04-29T22:49:23.078Z,16.00
2023-04-29T22:54:25.077Z,15.90
2023-04-29T22:59:27.039Z,15.90
2023-04-29T23:04:30.792Z,15.80
2023-04-29T23:09:33.115Z,15.80
2023-04-29T23:14:35.104Z,15.80
2023-04-29T23:19:37.245Z,15.80
2023-04-29T23:24:40.228Z,15.80
2023-04-29T23:29:42.265Z,15.80
2023-04-29T23:34:44.231Z,15.90
2023-04-29T23:39:46.284Z,15.80
2023-04-29T23:44:48.325Z,15.80
2023-04-29T23:49:50.295Z,15.80
2023-04-29T23:54:52.275Z,15.80
2023-04-29T23:59:54.621Z,15.80
